Time;durP1;ratioP1;P1;durP2;ratioP2;P2;SDS_P1;SDS_P2;PMS_P1;PMS_P2;Temp;Humidity;BMP_temperature;BMP_pressure;BME280_temperature;BME280_humidity;BME280_pressure;Samples;Min_cycle;Max_cycle;Signal;HPM_P1;HPM_P2
2022/01/01 00:02:16;;;;;;;13.90;10.90;;;20.00;50.20;;;;;;5032702;28;20197;-71
2022/01/01 00:04:43;;;;;;;14.00;10.50;;;20.00;50.20;;;;;;5016121;28;20707;-71
2022/01/01 00:07:10;;;;;;;14.23;10.90;;;20.00;50.20;;;;;;5016102;28;20302;-71
2022/01/01 00:09:37;;;;;;;11.75;10.13;;;20.00;50.20;;;;;;5032960;28;20220;-69
2022/01/01 00:12:07;;;;;;;13.52;10.15;;;19.90;50.10;;;;;;5016340;28;20196;-71
2022/01/01 00:14:35;;;;;;;10.85;9.68;;;19.90;50.10;;;;;;5034723;28;20199;-71
2022/01/01 00:17:03;;;;;;;12.65;10.52;;;19.90;50.10;;;;;;5018864;28;20258;-70
2022/01/01 00:19:31;;;;;;;13.40;11.10;;;19.90;50.00;;;;;;5035786;28;20216;-71
2022/01/01 00:21:58;;;;;;;13.27;10.50;;;19.80;50.00;;;;;;5016048;28;20215;-70
2022/01/01 00:24:25;;;;;;;12.88;10.45;;;19.80;50.00;;;;;;5032561;28;20258;-71
2022/01/01 00:26:52;;;;;;;12.15;9.90;;;19.80;50.00;;;;;;5016041;28;20314;-71
2022/01/01 00:29:20;;;;;;;12.40;10.43;;;19.70;50.00;;;;;;5032316;28;20202;-71
2022/01/01 00:31:48;;;;;;;11.55;10.35;;;19.70;50.00;;;;;;5017385;28;20207;-71
2022/01/01 00:34:15;;;;;;;13.02;10.05;;;19.70;50.00;;;;;;5017064;28;20196;-71
2022/01/01 00:36:42;;;;;;;10.93;9.63;;;19.70;50.00;;;;;;5034396;28;20218;-70
2022/01/01 00:39:09;;;;;;;11.80;9.98;;;19.70;50.00;;;;;;5033462;28;20672;-69
2022/01/01 00:41:36;;;;;;;11.85;9.90;;;19.60;49.90;;;;;;5015692;28;20200;-71
2022/01/01 00:44:05;;;;;;;11.13;10.00;;;19.60;50.00;;;;;;5033521;28;20180;-71
2022/01/01 00:46:33;;;;;;;12.00;9.80;;;19.60;49.90;;;;;;5032023;28;20600;-70
2022/01/01 00:49:00;;;;;;;12.15;10.02;;;19.60;49.90;;;;;;5033489;28;20204;-70
2022/01/01 00:51:27;;;;;;;11.13;9.93;;;19.60;49.90;;;;;;5015430;28;20211;-71
2022/01/01 00:53:54;;;;;;;11.40;10.32;;;19.60;49.90;;;;;;5015427;28;20648;-71
2022/01/01 00:56:21;;;;;;;11.68;10.50;;;19.50;49.80;;;;;;5015458;28;20231;-71
2022/01/01 00:58:48;;;;;;;14.10;10.93;;;19.60;49.90;;;;;;5014998;28;20687;-71
2022/01/01 01:01:15;;;;;;;12.05;10.85;;;19.60;49.90;;;;;;5015297;28;20258;-71
2022/01/01 01:03:44;;;;;;;12.30;10.98;;;19.60;50.00;;;;;;5015425;28;20257;-71
2022/01/01 01:06:12;;;;;;;12.10;10.88;;;19.50;50.00;;;;;;5033068;28;20192;-69
2022/01/01 01:08:39;;;;;;;12.75;11.45;;;19.50;50.00;;;;;;5031687;28;20687;-71
2022/01/01 01:11:08;;;;;;;13.93;10.82;;;19.50;49.90;;;;;;5015018;28;20220;-71
2022/01/01 01:13:35;;;;;;;13.15;11.27;;;19.50;49.90;;;;;;5015130;28;20207;-72
2022/01/01 01:16:02;;;;;;;11.45;10.10;;;19.50;50.40;;;;;;5032995;28;20184;-71
2022/01/01 01:18:29;;;;;;;10.88;9.75;;;19.50;50.00;;;;;;5015202;28;20203;-71
2022/01/01 01:20:57;;;;;;;13.32;11.23;;;19.50;50.00;;;;;;5015391;28;20191;-71
2022/01/01 01:23:24;;;;;;;10.65;9.65;;;19.50;49.90;;;;;;5031309;28;20200;-69
2022/01/01 01:25:54;;;;;;;11.65;10.45;;;19.50;50.00;;;;;;5015014;28;20200;-71
2022/01/01 01:28:21;;;;;;;10.82;9.73;;;19.50;50.00;;;;;;5031112;28;20224;-71
2022/01/01 01:30:48;;;;;;;10.88;9.77;;;19.40;49.90;;;;;;5014846;28;20591;-71
2022/01/01 01:33:16;;;;;;;12.18;9.88;;;19.40;50.00;;;;;;5014919;28;20204;-71
2022/01/01 01:35:43;;;;;;;10.60;9.40;;;19.40;49.90;;;;;;5015544;28;20265;-69
2022/01/01 01:38:12;;;;;;;10.57;9.57;;;19.40;49.90;;;;;;5033130;28;20208;-71
2022/01/01 01:40:39;;;;;;;10.35;9.35;;;19.40;49.90;;;;;;5031682;28;20271;-71
2022/01/01 01:43:10;;;;;;;10.48;9.30;;;19.40;50.00;;;;;;5015215;28;20204;-70
2022/01/01 01:45:37;;;;;;;10.93;9.68;;;19.40;50.00;;;;;;5014768;28;20197;-71
2022/01/01 01:48:05;;;;;;;10.07;9.07;;;19.40;50.00;;;;;;5014657;28;20652;-69
2022/01/01 01:50:33;;;;;;;10.43;9.00;;;19.40;50.00;;;;;;5014406;28;20223;-71
2022/01/01 01:53:01;;;;;;;10.70;9.20;;;19.40;50.10;;;;;;5031219;28;20239;-71
2022/01/01 01:55:29;;;;;;;10.27;8.98;;;19.40;50.10;;;;;;5031031;28;20204;-69
2022/01/01 01:57:56;;;;;;;10.00;8.90;;;19.40;50.00;;;;;;5014359;28;20216;-70
2022/01/01 02:00:50;;;;;;;11.00;8.77;;;19.40;50.00;;;;;;5014692;28;20196;-71
2022/01/01 02:03:17;;;;;;;9.55;8.57;;;19.40;50.60;;;;;;5014545;28;20204;-71
2022/01/01 02:05:44;;;;;;;10.45;9.45;;;19.40;50.00;;;;;;5014353;28;20557;-71
2022/01/01 02:08:12;;;;;;;9.95;8.95;;;19.30;50.00;;;;;;5031847;28;20212;-69
2022/01/01 02:10:40;;;;;;;10.73;8.98;;;19.30;50.00;;;;;;5015529;28;20646;-71
2022/01/01 02:13:12;;;;;;;9.27;8.38;;;19.30;50.00;;;;;;5017951;28;20196;-71
2022/01/01 02:15:48;;;;;;;9.48;8.27;;;19.30;50.00;;;;;;5017596;28;20188;-70
2022/01/01 02:18:15;;;;;;;8.70;7.85;;;19.30;50.00;;;;;;5017692;28;20254;-71
2022/01/01 02:20:49;;;;;;;8.95;7.80;;;19.30;50.60;;;;;;5017814;28;20286;-69
2022/01/01 02:23:16;;;;;;;8.90;8.00;;;19.30;50.00;;;;;;5034262;28;20189;-70
2022/01/01 02:25:43;;;;;;;12.65;8.38;;;19.30;50.00;;;;;;5017758;28;20200;-69
2022/01/01 02:28:11;;;;;;;9.75;8.45;;;19.30;49.90;;;;;;5017834;28;20230;-71
2022/01/01 02:30:38;;;;;;;9.48;8.57;;;19.30;50.00;;;;;;5017255;28;20240;-71
2022/01/01 02:33:05;;;;;;;9.07;8.13;;;19.20;49.90;;;;;;5035384;28;20741;-71
2022/01/01 02:35:32;;;;;;;8.70;7.90;;;19.20;50.00;;;;;;5035166;28;20557;-71
2022/01/01 02:38:01;;;;;;;9.15;7.80;;;19.20;50.00;;;;;;5017516;28;20277;-71
2022/01/01 02:40:28;;;;;;;8.93;8.02;;;19.20;50.00;;;;;;5017381;28;20195;-71
2022/01/01 02:42:56;;;;;;;9.30;8.20;;;19.20;50.00;;;;;;5017403;28;20254;-71
2022/01/01 02:45:23;;;;;;;8.70;7.82;;;19.20;50.00;;;;;;5017854;28;20196;-71
2022/01/01 02:47:50;;;;;;;8.68;7.88;;;19.20;50.00;;;;;;5034363;28;20259;-71
2022/01/01 02:50:18;;;;;;;8.45;7.55;;;19.20;50.70;;;;;;5035266;28;20215;-70
2022/01/01 02:52:47;;;;;;;8.63;7.72;;;19.20;50.00;;;;;;5017987;28;20259;-70
2022/01/01 02:55:15;;;;;;;8.23;7.45;;;19.20;50.00;;;;;;5018279;28;20207;-71
2022/01/01 02:57:42;;;;;;;8.35;7.55;;;19.20;50.60;;;;;;5035452;28;20226;-71
2022/01/01 03:00:10;;;;;;;8.30;7.35;;;19.10;50.10;;;;;;5018675;28;20227;-71
2022/01/01 03:02:38;;;;;;;8.00;7.20;;;19.10;50.00;;;;;;5034432;28;20223;-71
2022/01/01 03:05:06;;;;;;;8.23;7.43;;;19.10;50.00;;;;;;5033897;28;20200;-71
2022/01/01 03:07:34;;;;;;;8.18;7.38;;;19.20;50.10;;;;;;5033331;28;20224;-71
2022/01/01 03:10:02;;;;;;;7.93;7.20;;;19.10;50.10;;;;;;5016785;28;20616;-71
2022/01/01 03:12:30;;;;;;;7.85;7.15;;;19.10;50.10;;;;;;5035247;28;20188;-71
2022/01/01 03:14:57;;;;;;;7.45;6.75;;;19.10;50.10;;;;;;5039849;28;20718;-69
2022/01/01 03:17:25;;;;;;;7.80;7.10;;;19.10;50.10;;;;;;5021998;28;20254;-72
2022/01/01 03:19:52;;;;;;;8.45;7.63;;;19.10;50.10;;;;;;5021024;28;20208;-72
2022/01/01 03:22:19;;;;;;;8.20;7.40;;;19.10;50.20;;;;;;5038727;28;20192;-71
2022/01/01 03:24:46;;;;;;;8.35;7.45;;;19.10;50.10;;;;;;5020956;28;20278;-71
2022/01/01 03:27:13;;;;;;;7.53;6.75;;;19.10;50.10;;;;;;5021029;28;20216;-71
2022/01/01 03:29:42;;;;;;;9.25;7.65;;;19.10;50.20;;;;;;5021187;28;20262;-70
2022/01/01 03:32:09;;;;;;;8.95;8.02;;;19.00;50.10;;;;;;5035757;28;20216;-69
2022/01/01 03:34:36;;;;;;;8.20;7.40;;;19.00;50.10;;;;;;5016561;28;20210;-71
2022/01/01 03:37:03;;;;;;;8.32;7.57;;;19.00;50.10;;;;;;5033075;28;20220;-71
2022/01/01 03:39:30;;;;;;;10.05;7.53;;;19.00;50.20;;;;;;5016636;28;20684;-71
2022/01/01 03:41:58;;;;;;;7.70;7.00;;;19.00;50.10;;;;;;5016344;28;20204;-72
2022/01/01 03:44:25;;;;;;;8.02;7.18;;;19.10;50.20;;;;;;5016106;28;20196;-72
2022/01/01 03:47:01;;;;;;;7.85;7.05;;;19.00;50.10;;;;;;5015965;28;20212;-70
2022/01/01 03:49:29;;;;;;;7.05;6.45;;;19.00;50.10;;;;;;5016263;28;20223;-71
2022/01/01 03:51:58;;;;;;;7.75;6.95;;;19.00;50.10;;;;;;5015685;28;20657;-71
2022/01/01 03:54:25;;;;;;;7.05;6.35;;;19.00;50.20;;;;;;5033525;28;20196;-71
2022/01/01 03:56:52;;;;;;;7.57;6.88;;;19.00;50.30;;;;;;5032258;28;20216;-70
2022/01/01 03:59:20;;;;;;;7.43;6.72;;;19.00;50.20;;;;;;5015670;28;20278;-71
2022/01/01 04:01:47;;;;;;;8.48;6.30;;;19.00;50.30;;;;;;5015852;28;20208;-72
2022/01/01 04:04:15;;;;;;;6.95;6.20;;;19.00;50.20;;;;;;5032384;28;20234;-69
2022/01/01 04:06:43;;;;;;;7.75;7.00;;;19.00;50.20;;;;;;5015903;28;20314;-71
2022/01/01 04:09:10;;;;;;;7.13;6.43;;;19.00;50.40;;;;;;5015708;28;20204;-72
2022/01/01 04:11:37;;;;;;;7.97;7.20;;;19.00;50.30;;;;;;5015826;28;20579;-71
2022/01/01 04:14:04;;;;;;;6.85;6.25;;;19.00;50.40;;;;;;5015758;28;20218;-71
2022/01/01 04:16:31;;;;;;;7.07;6.38;;;19.00;50.50;;;;;;5015793;28;20263;-69
2022/01/01 04:18:58;;;;;;;7.97;7.28;;;19.00;50.50;;;;;;5015965;28;20291;-71
2022/01/01 04:21:26;;;;;;;8.65;7.85;;;19.00;50.40;;;;;;5015899;28;20200;-70
2022/01/01 04:23:53;;;;;;;9.35;8.40;;;19.00;50.30;;;;;;5016055;28;20200;-68
2022/01/01 04:26:20;;;;;;;10.38;9.38;;;19.00;50.00;;;;;;5016197;28;20643;-71
2022/01/01 04:28:47;;;;;;;10.55;9.55;;;19.00;50.00;;;;;;5033461;28;20196;-71
2022/01/01 04:31:15;;;;;;;10.23;9.23;;;19.10;49.90;;;;;;5032346;28;20216;-70
2022/01/01 04:33:42;;;;;;;10.00;9.10;;;19.10;49.90;;;;;;5014853;28;20196;-72
2022/01/01 04:36:09;;;;;;;11.15;10.05;;;19.10;49.60;;;;;;5015453;28;20192;-71
2022/01/01 04:38:39;;;;;;;10.40;9.43;;;19.10;49.50;;;;;;5015672;28;20668;-69
2022/01/01 04:41:07;;;;;;;9.73;8.73;;;19.20;49.60;;;;;;5033179;28;20177;-70
2022/01/01 04:43:35;;;;;;;10.40;9.40;;;19.20;49.50;;;;;;5015141;28;20254;-69
2022/01/01 04:46:02;;;;;;;10.40;9.40;;;19.20;49.40;;;;;;5015337;28;20196;-71
2022/01/01 04:48:29;;;;;;;10.63;9.63;;;19.20;49.30;;;;;;5015183;28;20204;-71
2022/01/01 04:50:56;;;;;;;10.20;9.20;;;19.20;49.20;;;;;;5015304;28;20224;-70
2022/01/01 04:53:23;;;;;;;10.13;9.13;;;19.20;49.20;;;;;;5015084;28;20290;-71
2022/01/01 04:55:51;;;;;;;9.63;8.63;;;19.20;49.30;;;;;;5015168;28;20196;-71
2022/01/01 04:58:18;;;;;;;9.90;8.90;;;19.30;49.20;;;;;;5032871;28;20208;-70
2022/01/01 05:00:45;;;;;;;10.10;9.10;;;19.30;49.20;;;;;;5015232;28;20200;-70
2022/01/01 05:03:13;;;;;;;9.32;8.38;;;19.30;49.10;;;;;;5014895;28;20203;-71
2022/01/01 05:05:40;;;;;;;8.60;7.80;;;19.30;49.10;;;;;;5014811;28;20200;-71
2022/01/01 05:08:07;;;;;;;11.00;9.13;;;19.30;49.20;;;;;;5031314;28;20224;-70
2022/01/01 05:10:33;;;;;;;10.45;9.35;;;19.30;49.20;;;;;;5014782;28;20196;-71
2022/01/01 05:13:02;;;;;;;9.73;8.93;;;19.30;49.20;;;;;;5032628;28;20212;-71
2022/01/01 05:15:29;;;;;;;10.40;9.40;;;19.30;49.10;;;;;;5032502;28;20188;-69
2022/01/01 05:17:57;;;;;;;9.50;8.60;;;19.30;49.10;;;;;;5014803;28;20464;-70
2022/01/01 05:20:23;;;;;;;9.82;8.88;;;19.30;49.00;;;;;;5014761;28;20222;-72
2022/01/01 05:22:50;;;;;;;9.20;8.30;;;19.30;48.80;;;;;;5014685;28;20207;-71
2022/01/01 05:25:17;;;;;;;9.77;8.80;;;19.30;48.80;;;;;;5014725;28;20249;-71
2022/01/01 05:27:44;;;;;;;10.50;9.00;;;19.30;49.40;;;;;;5014708;28;20226;-72
2022/01/01 05:30:13;;;;;;;8.93;8.02;;;19.30;48.70;;;;;;5014822;28;20188;-71
2022/01/01 05:32:40;;;;;;;9.80;8.82;;;19.30;48.60;;;;;;5032481;28;20270;-69
2022/01/01 05:35:08;;;;;;;9.70;8.80;;;19.30;48.50;;;;;;5014755;28;20263;-69
2022/01/01 05:37:35;;;;;;;9.55;8.60;;;19.30;48.60;;;;;;5031130;28;20216;-72
2022/01/01 05:40:02;;;;;;;10.57;9.38;;;19.30;48.50;;;;;;5015152;28;20200;-70
2022/01/01 05:42:29;;;;;;;9.18;8.30;;;19.30;49.90;;;;;;5014946;28;20188;-70
2022/01/01 05:44:56;;;;;;;10.35;9.23;;;19.30;49.40;;;;;;5015015;28;20200;-70
2022/01/01 05:47:25;;;;;;;12.48;9.25;;;19.30;49.70;;;;;;5034964;28;20765;-70
2022/01/01 05:49:52;;;;;;;9.23;8.32;;;19.30;49.60;;;;;;5018202;28;20679;-71
2022/01/01 05:52:19;;;;;;;8.80;8.00;;;19.30;50.00;;;;;;5036026;28;20706;-68
2022/01/01 05:54:46;;;;;;;8.90;8.13;;;19.30;49.70;;;;;;5018438;28;20203;-71
2022/01/01 05:57:13;;;;;;;9.55;8.65;;;19.30;49.80;;;;;;5035984;28;20258;-70
2022/01/01 05:59:41;;;;;;;9.95;8.23;;;19.30;49.80;;;;;;5018200;28;20204;-70
2022/01/01 06:02:09;;;;;;;8.65;7.75;;;19.30;49.70;;;;;;5035723;28;20181;-71
2022/01/01 06:04:40;;;;;;;8.75;7.65;;;19.40;50.30;;;;;;5018098;28;20315;-71
2022/01/01 06:07:08;;;;;;;8.50;7.60;;;19.40;50.20;;;;;;5018209;28;20274;-71
2022/01/01 06:09:35;;;;;;;8.10;7.35;;;19.40;49.80;;;;;;5018279;28;20200;-70
2022/01/01 06:12:03;;;;;;;8.50;7.60;;;19.40;49.80;;;;;;5035588;28;20204;-71
2022/01/01 06:14:30;;;;;;;8.60;7.72;;;19.40;49.60;;;;;;5034576;28;20707;-71
2022/01/01 06:16:57;;;;;;;8.00;7.20;;;19.40;49.60;;;;;;5035751;28;20337;-70
2022/01/01 06:19:24;;;;;;;8.52;7.70;;;19.40;49.40;;;;;;5017655;28;20200;-70
2022/01/01 06:21:53;;;;;;;8.27;7.47;;;19.40;49.70;;;;;;5017810;28;20228;-69
2022/01/01 06:24:20;;;;;;;8.05;7.25;;;19.50;49.20;;;;;;5034263;28;20202;-72
2022/01/01 06:26:47;;;;;;;8.35;6.90;;;19.50;49.00;;;;;;5017807;28;20352;-71
2022/01/01 06:29:14;;;;;;;7.55;6.85;;;19.50;49.20;;;;;;5017694;28;20254;-71
2022/01/01 06:31:41;;;;;;;7.68;6.97;;;19.50;48.80;;;;;;5034077;28;20222;-71
2022/01/01 06:34:08;;;;;;;7.65;7.03;;;19.50;48.80;;;;;;5017640;28;20196;-71
2022/01/01 06:36:36;;;;;;;7.50;6.80;;;19.50;48.70;;;;;;5017441;28;20600;-71
2022/01/01 06:39:04;;;;;;;7.93;7.10;;;19.50;48.70;;;;;;5017729;28;20202;-71
2022/01/01 06:41:32;;;;;;;7.63;6.88;;;19.60;49.30;;;;;;5017533;28;20192;-72
2022/01/01 06:43:59;;;;;;;7.35;6.68;;;19.50;48.50;;;;;;5035081;28;20294;-72
2022/01/01 06:46:26;;;;;;;7.57;6.88;;;19.60;48.70;;;;;;5017226;28;20274;-71
2022/01/01 06:48:53;;;;;;;7.90;7.10;;;19.60;48.70;;;;;;5034959;28;20192;-69
2022/01/01 06:51:21;;;;;;;7.55;6.85;;;19.60;48.50;;;;;;5017111;28;20204;-70
2022/01/01 06:53:47;;;;;;;7.80;7.10;;;19.60;48.40;;;;;;5017273;28;20736;-70
2022/01/01 06:56:16;;;;;;;7.93;7.18;;;19.60;48.40;;;;;;5017076;28;20278;-70
2022/01/01 06:58:44;;;;;;;7.80;7.00;;;19.60;48.30;;;;;;5016684;28;20211;-71
2022/01/01 07:01:11;;;;;;;9.55;6.70;;;19.60;48.40;;;;;;5035307;28;20211;-70
2022/01/01 07:03:38;;;;;;;7.47;6.88;;;19.60;48.40;;;;;;5017016;28;20207;-70
2022/01/01 07:06:06;;;;;;;7.70;7.00;;;19.60;48.20;;;;;;5017199;28;20239;-70
2022/01/01 07:08:32;;;;;;;7.22;6.50;;;19.60;48.20;;;;;;5017319;28;20224;-71
2022/01/01 07:10:59;;;;;;;7.05;6.45;;;19.60;48.90;;;;;;5017586;28;20286;-70
2022/01/01 07:13:28;;;;;;;7.68;6.97;;;19.60;48.50;;;;;;5017754;28;20220;-70
2022/01/01 07:15:55;;;;;;;7.63;6.93;;;19.60;48.60;;;;;;5017683;28;20192;-67
2022/01/01 07:18:22;;;;;;;7.57;6.82;;;19.70;48.70;;;;;;5035100;28;20212;-70
2022/01/01 07:20:49;;;;;;;7.47;6.78;;;19.70;48.70;;;;;;5017009;28;20675;-70
2022/01/01 07:23:15;;;;;;;7.93;7.13;;;19.70;48.40;;;;;;5017379;28;20214;-70
2022/01/01 07:25:42;;;;;;;7.60;6.85;;;19.70;48.40;;;;;;5017143;28;20668;-71
2022/01/01 07:28:13;;;;;;;8.27;7.47;;;19.70;48.30;;;;;;5017202;28;20228;-70
2022/01/01 07:30:41;;;;;;;8.23;7.53;;;19.70;48.30;;;;;;5017359;28;20287;-70
2022/01/01 07:33:08;;;;;;;8.57;7.78;;;19.70;48.20;;;;;;5016864;28;20239;-69
2022/01/01 07:35:37;;;;;;;7.68;6.93;;;19.70;48.10;;;;;;5017711;28;20250;-71
2022/01/01 07:38:05;;;;;;;7.47;6.78;;;19.80;48.10;;;;;;5018179;28;20761;-71
2022/01/01 07:40:34;;;;;;;7.40;6.70;;;19.70;48.10;;;;;;5017601;28;20524;-71
2022/01/01 07:43:01;;;;;;;7.55;6.85;;;19.70;47.90;;;;;;5016584;28;20242;-70
2022/01/01 07:45:28;;;;;;;7.85;7.15;;;19.70;47.90;;;;;;5033226;28;20206;-71
2022/01/01 07:47:56;;;;;;;7.90;7.10;;;19.80;47.90;;;;;;5034216;28;20310;-71
2022/01/01 07:50:23;;;;;;;7.35;6.65;;;19.70;47.70;;;;;;5034299;28;20202;-72
2022/01/01 07:52:50;;;;;;;7.93;7.22;;;19.80;47.80;;;;;;5034185;28;20215;-69
2022/01/01 07:55:18;;;;;;;7.47;6.80;;;19.80;47.90;;;;;;5017379;28;20630;-68
2022/01/01 07:57:45;;;;;;;7.30;6.60;;;19.80;47.80;;;;;;5017944;28;20212;-70
2022/01/01 08:00:13;;;;;;;7.68;6.88;;;19.80;47.80;;;;;;5016588;28;20199;-70
2022/01/01 08:02:41;;;;;;;8.07;7.38;;;19.80;48.30;;;;;;5033356;28;20269;-70
2022/01/01 08:05:10;;;;;;;7.60;6.90;;;19.90;47.70;;;;;;5016591;28;20238;-71
2022/01/01 08:07:37;;;;;;;7.88;7.20;;;19.90;47.60;;;;;;5016591;28;20220;-71
2022/01/01 08:10:05;;;;;;;8.35;7.43;;;19.90;47.40;;;;;;5016357;28;20200;-71
2022/01/01 08:12:32;;;;;;;8.38;7.68;;;19.90;47.20;;;;;;5017278;28;20270;-70
2022/01/01 08:15:00;;;;;;;8.27;7.47;;;19.90;47.10;;;;;;5022044;28;20203;-69
2022/01/01 08:17:27;;;;;;;7.97;7.28;;;19.90;47.10;;;;;;5023092;28;20262;-70
2022/01/01 08:19:53;;;;;;;8.57;7.78;;;19.90;47.10;;;;;;5018106;28;20204;-70
2022/01/01 08:22:22;;;;;;;8.05;7.35;;;19.90;47.10;;;;;;5033482;28;20563;-69
2022/01/01 08:24:48;;;;;;;8.43;7.63;;;19.90;47.00;;;;;;5033844;28;20206;-71
2022/01/01 08:27:15;;;;;;;8.10;7.30;;;19.90;47.00;;;;;;5016076;28;20605;-71
2022/01/01 08:29:42;;;;;;;8.25;7.45;;;19.90;47.00;;;;;;5016022;28;20285;-68
2022/01/01 08:32:10;;;;;;;8.10;7.10;;;19.90;46.90;;;;;;5015789;28;20238;-70
2022/01/01 08:34:37;;;;;;;7.78;6.80;;;19.90;47.00;;;;;;5032312;28;20267;-71
2022/01/01 08:37:04;;;;;;;8.05;7.32;;;19.90;46.80;;;;;;5015971;28;20216;-70
2022/01/01 08:39:33;;;;;;;7.47;6.78;;;19.90;46.90;;;;;;5032259;28;20660;-70
2022/01/01 08:42:00;;;;;;;7.72;6.93;;;19.90;47.00;;;;;;5016281;28;20210;-71
2022/01/01 08:44:27;;;;;;;7.82;7.13;;;19.90;47.00;;;;;;5032075;28;20200;-70
2022/01/01 08:46:55;;;;;;;8.05;6.50;;;19.90;47.00;;;;;;5033091;28;20214;-69
2022/01/01 08:49:21;;;;;;;8.10;7.07;;;19.90;47.10;;;;;;5015532;28;20228;-69
2022/01/01 08:51:48;;;;;;;7.65;6.95;;;19.90;47.10;;;;;;5015883;28;20620;-70
2022/01/01 08:54:16;;;;;;;6.90;6.30;;;19.90;47.10;;;;;;5015213;28;20254;-70
2022/01/01 08:56:44;;;;;;;7.25;6.65;;;19.90;47.00;;;;;;5033058;28;20239;-70
2022/01/01 08:59:11;;;;;;;7.50;6.80;;;19.90;47.50;;;;;;5015533;28;20200;-70
2022/01/01 09:01:38;;;;;;;7.00;6.40;;;19.90;47.00;;;;;;5015383;28;20223;-71
2022/01/01 09:04:06;;;;;;;6.95;6.25;;;19.90;47.00;;;;;;5015382;28;20196;-69
2022/01/01 09:06:33;;;;;;;7.35;6.75;;;19.90;47.00;;;;;;5015471;28;20224;-69
2022/01/01 09:09:00;;;;;;;7.50;6.80;;;19.90;46.90;;;;;;5015096;28;20208;-70
2022/01/01 09:11:27;;;;;;;6.60;6.00;;;19.90;47.00;;;;;;5015575;28;20250;-70
2022/01/01 09:13:55;;;;;;;6.72;6.13;;;19.90;46.90;;;;;;5014752;28;20220;-70
2022/01/01 09:16:29;;;;;;;7.25;6.55;;;19.90;47.00;;;;;;5015240;28;20220;-71
2022/01/01 09:18:56;;;;;;;7.50;6.82;;;20.00;47.00;;;;;;5016422;28;20206;-70
2022/01/01 09:21:23;;;;;;;9.15;6.60;;;19.90;47.00;;;;;;5018255;28;20210;-71
2022/01/01 09:23:50;;;;;;;6.57;5.97;;;20.00;46.90;;;;;;5036541;28;20188;-71
2022/01/01 09:26:17;;;;;;;7.05;6.45;;;19.90;46.70;;;;;;5019001;28;20201;-68
2022/01/01 09:28:47;;;;;;;7.25;6.57;;;19.90;46.80;;;;;;5019228;28;20207;-69
2022/01/01 09:31:15;;;;;;;6.70;6.10;;;20.00;47.30;;;;;;5018678;28;20566;-71
2022/01/01 09:33:42;;;;;;;7.43;6.72;;;20.00;47.40;;;;;;5035136;28;20311;-71
2022/01/01 09:36:10;;;;;;;7.72;7.03;;;20.00;47.40;;;;;;5018592;28;20238;-70
2022/01/01 09:38:37;;;;;;;7.78;7.07;;;20.00;47.00;;;;;;5018816;28;20266;-69
2022/01/01 09:41:04;;;;;;;6.97;6.38;;;20.00;47.00;;;;;;5018833;28;20196;-70
2022/01/01 09:43:32;;;;;;;7.43;6.72;;;20.00;47.00;;;;;;5035181;28;20561;-70
2022/01/01 09:46:00;;;;;;;7.65;6.95;;;20.00;47.10;;;;;;5018645;28;20207;-70
2022/01/01 09:48:28;;;;;;;8.10;7.40;;;20.00;47.00;;;;;;5018983;28;20224;-70
2022/01/01 09:50:56;;;;;;;7.80;7.18;;;20.00;47.20;;;;;;5018475;28;20509;-71
2022/01/01 09:53:24;;;;;;;7.32;6.72;;;20.00;47.10;;;;;;5019136;28;20219;-71
2022/01/01 09:55:51;;;;;;;7.75;7.00;;;20.00;47.20;;;;;;5018943;28;20196;-70
2022/01/01 09:58:18;;;;;;;7.22;6.63;;;20.00;47.10;;;;;;5019201;28;20223;-69
2022/01/01 10:00:44;;;;;;;6.95;6.28;;;20.00;47.10;;;;;;5018716;28;20222;-71
2022/01/01 10:03:12;;;;;;;6.97;6.38;;;20.00;47.00;;;;;;5018677;28;20201;-70
2022/01/01 10:05:58;;;;;;;7.03;6.30;;;20.00;47.00;;;;;;5035126;28;20368;-69
2022/01/01 10:08:25;;;;;;;7.82;6.82;;;20.00;47.00;;;;;;5034926;28;20267;-71
2022/01/01 10:10:52;;;;;;;7.03;6.43;;;20.00;47.00;;;;;;5018536;28;20200;-68
2022/01/01 10:13:20;;;;;;;6.47;5.85;;;20.00;47.00;;;;;;5035768;28;20224;-71
2022/01/01 10:15:48;;;;;;;6.60;6.10;;;20.00;47.00;;;;;;5018485;28;20294;-71
2022/01/01 10:18:15;;;;;;;6.72;6.13;;;20.00;47.00;;;;;;5034408;28;20222;-70
2022/01/01 10:20:44;;;;;;;6.78;6.00;;;20.10;47.10;;;;;;5018282;28;20569;-70
2022/01/01 10:23:15;;;;;;;6.47;5.95;;;20.10;47.20;;;;;;5018511;28;20189;-70
2022/01/01 10:28:27;;;;;;;7.43;6.70;;;20.00;47.00;;;;;;5017831;28;20302;-69
2022/01/01 10:30:55;;;;;;;6.95;6.35;;;20.10;47.00;;;;;;5017592;28;20748;-71
2022/01/01 10:33:23;;;;;;;6.85;6.25;;;20.10;46.90;;;;;;5034000;28;20212;-72
2022/01/01 10:35:51;;;;;;;7.50;6.82;;;20.10;46.80;;;;;;5034624;28;20664;-71
2022/01/01 10:38:20;;;;;;;6.80;6.20;;;20.10;46.80;;;;;;5034096;28;20739;-69
2022/01/01 10:40:47;;;;;;;7.32;6.63;;;20.10;47.00;;;;;;5036182;28;20199;-71
2022/01/01 10:43:15;;;;;;;7.38;6.65;;;20.10;47.50;;;;;;5034932;28;20192;-71
2022/01/01 10:45:47;;;;;;;8.00;6.53;;;20.10;48.50;;;;;;5034153;28;20231;-71
2022/01/01 10:48:20;;;;;;;7.05;6.40;;;20.20;47.40;;;;;;5034428;28;20248;-71
2022/01/01 10:50:48;;;;;;;6.47;5.88;;;20.20;47.40;;;;;;5017942;28;20703;-68
2022/01/01 10:53:15;;;;;;;6.80;6.18;;;20.20;47.50;;;;;;5018755;28;20220;-70
2022/01/01 10:55:44;;;;;;;6.75;6.15;;;20.20;47.30;;;;;;5018480;28;20222;-70
2022/01/01 10:58:17;;;;;;;7.30;5.90;;;20.20;47.00;;;;;;5018192;28;20216;-70
2022/01/01 11:00:44;;;;;;;7.00;6.30;;;20.20;46.80;;;;;;5018208;28;20572;-71
2022/01/01 11:03:15;;;;;;;6.63;6.03;;;20.20;46.70;;;;;;5017722;28;20196;-70
2022/01/01 11:05:42;;;;;;;6.90;6.30;;;20.20;47.00;;;;;;5017660;28;20215;-70
2022/01/01 11:08:10;;;;;;;6.55;5.93;;;20.30;46.80;;;;;;5017517;28;20234;-71
2022/01/01 11:10:37;;;;;;;6.95;6.32;;;20.30;46.90;;;;;;5033773;28;20204;-71
2022/01/01 11:13:06;;;;;;;7.05;6.43;;;20.30;46.80;;;;;;5017649;28;20704;-71
2022/01/01 11:15:33;;;;;;;6.78;6.18;;;20.30;46.80;;;;;;5017767;28;20283;-68
2022/01/01 11:18:02;;;;;;;7.25;6.53;;;20.30;46.80;;;;;;5035609;28;20216;-71
2022/01/01 11:20:33;;;;;;;7.00;6.30;;;20.40;46.70;;;;;;5017254;28;20573;-71
2022/01/01 11:23:05;;;;;;;6.90;6.30;;;20.40;46.80;;;;;;5034949;28;20168;-71
2022/01/01 11:25:33;;;;;;;6.80;6.07;;;20.40;46.80;;;;;;5033906;28;20259;-71
2022/01/01 11:28:00;;;;;;;6.88;6.20;;;20.50;46.80;;;;;;5016885;28;20216;-70
2022/01/01 11:30:29;;;;;;;6.93;6.32;;;20.50;47.20;;;;;;5016684;28;20564;-70
2022/01/01 11:32:59;;;;;;;6.88;6.15;;;20.50;46.50;;;;;;5016894;28;20200;-70
2022/01/01 11:35:28;;;;;;;6.90;5.82;;;20.50;46.50;;;;;;5034832;28;20195;-70
2022/01/01 11:38:00;;;;;;;6.38;5.75;;;20.60;46.60;;;;;;5017050;28;20215;-70
2022/01/01 11:40:27;;;;;;;6.13;5.53;;;20.60;46.40;;;;;;5017583;28;20184;-70
2022/01/01 11:42:55;;;;;;;6.45;5.95;;;20.70;46.30;;;;;;5017015;28;20204;-71
2022/01/01 11:45:43;;;;;;;6.90;6.30;;;20.70;46.40;;;;;;5017147;28;20195;-70
2022/01/01 11:48:35;;;;;;;6.28;5.75;;;20.70;46.30;;;;;;5017667;28;20230;-69
2022/01/01 11:51:21;;;;;;;6.45;5.90;;;20.80;46.50;;;;;;5034877;28;20267;-68
2022/01/01 11:54:08;;;;;;;6.30;5.80;;;20.80;46.40;;;;;;5022700;28;20212;-70
2022/01/01 11:57:02;;;;;;;6.25;5.75;;;20.80;46.40;;;;;;5036714;28;20200;-71
2022/01/01 11:59:31;;;;;;;6.03;5.53;;;20.90;46.50;;;;;;5030514;28;20250;-71
2022/01/01 12:02:02;;;;;;;6.68;6.07;;;20.90;46.20;;;;;;5017652;28;20231;-71
2022/01/01 12:04:32;;;;;;;6.80;6.22;;;20.90;46.20;;;;;;5035200;28;20195;-71
2022/01/01 12:07:01;;;;;;;5.60;5.10;;;21.00;46.30;;;;;;5017562;28;20692;-70
2022/01/01 12:09:28;;;;;;;6.38;5.78;;;21.00;46.10;;;;;;5017659;28;20199;-70
2022/01/01 12:11:56;;;;;;;6.68;6.10;;;21.00;46.00;;;;;;5017187;28;20210;-70
2022/01/01 12:14:24;;;;;;;6.22;5.63;;;21.10;45.90;;;;;;5017996;28;20606;-71
2022/01/01 12:16:52;;;;;;;6.65;6.05;;;21.10;45.90;;;;;;5018046;28;20231;-70
2022/01/01 12:19:22;;;;;;;6.03;5.53;;;21.20;46.00;;;;;;5018538;28;20210;-70
2022/01/01 12:22:00;;;;;;;6.25;5.80;;;21.20;45.80;;;;;;5017869;28;20238;-70
2022/01/01 12:24:28;;;;;;;6.50;5.90;;;21.20;45.80;;;;;;5017771;28;20246;-69
2022/01/01 12:26:55;;;;;;;6.13;5.53;;;21.20;45.80;;;;;;5017633;28;20222;-71
2022/01/01 12:29:23;;;;;;;6.72;5.88;;;21.30;45.90;;;;;;5017548;28;20196;-70
2022/01/01 12:31:57;;;;;;;5.72;5.22;;;21.30;45.60;;;;;;5044944;28;20562;-70
2022/01/01 12:34:27;;;;;;;5.78;5.25;;;21.30;45.70;;;;;;5034360;28;20706;-70
2022/01/01 12:36:55;;;;;;;6.10;5.50;;;21.30;45.70;;;;;;5017096;28;20220;-71
2022/01/01 12:39:22;;;;;;;6.15;5.65;;;21.30;45.60;;;;;;5022029;28;20220;-70
2022/01/01 12:41:50;;;;;;;6.15;5.65;;;21.30;45.70;;;;;;5018557;28;20200;-70
2022/01/01 12:44:18;;;;;;;6.22;5.63;;;21.30;45.80;;;;;;5017646;28;20207;-70
2022/01/01 12:46:46;;;;;;;5.53;5.05;;;21.30;45.80;;;;;;5017844;28;20285;-70
2022/01/01 12:49:13;;;;;;;5.93;5.32;;;21.20;45.80;;;;;;5016190;28;20317;-70
2022/01/01 12:51:42;;;;;;;6.00;5.50;;;21.30;45.80;;;;;;5016302;28;20204;-69